createdAt,value
2023-06-14T00:00:46.035Z,33.55
2023-06-14T00:01:46.051Z,33.48
2023-06-14T00:02:46.150Z,33.45
2023-06-14T00:03:46.073Z,33.51
2023-06-14T00:04:46.016Z,33.45
2023-06-14T00:05:45.004Z,33.50
2023-06-14T00:06:44.983Z,33.49
2023-06-14T00:07:45.988Z,33.47
2023-06-14T00:08:45.969Z,33.52
2023-06-14T00:09:45.949Z,33.50
2023-06-14T00:10:44.960Z,33.49
2023-06-14T00:11:44.980Z,33.49
2023-06-14T00:12:45.950Z,33.50
2023-06-14T00:13:45.961Z,33.49
2023-06-14T00:14:45.925Z,33.56
2023-06-14T00:15:45.921Z,33.50
2023-06-14T00:16:46.009Z,33.49
2023-06-14T00:17:45.960Z,33.50
2023-06-14T00:18:44.901Z,33.53
2023-06-14T00:19:44.907Z,33.51
2023-06-14T00:20:44.898Z,33.54
2023-06-14T00:21:45.896Z,33.56
2023-06-14T00:22:45.888Z,33.58
2023-06-14T00:23:45.937Z,33.54
2023-06-14T00:24:45.885Z,33.51
2023-06-14T00:25:45.911Z,33.50
2023-06-14T00:26:45.945Z,33.52
2023-06-14T00:27:45.012Z,33.59
2023-06-14T00:28:46.047Z,33.52
2023-06-14T00:29:46.128Z,33.54
2023-06-14T00:30:46.095Z,33.52
2023-06-14T00:31:45.201Z,33.46
2023-06-14T00:32:46.227Z,33.49
2023-06-14T00:33:46.272Z,33.49
2023-06-14T00:34:45.277Z,33.55
2023-06-14T00:35:46.341Z,33.60
2023-06-14T00:36:46.356Z,33.59
2023-06-14T00:37:45.424Z,33.60
2023-06-14T00:38:46.469Z,33.60
2023-06-14T00:39:45.515Z,33.55
2023-06-14T00:40:46.560Z,33.61
2023-06-14T00:41:46.585Z,33.55
2023-06-14T00:42:46.756Z,33.56
2023-06-14T00:43:46.697Z,33.63
2023-06-14T00:44:46.734Z,33.61
2023-06-14T00:45:46.785Z,33.58
2023-06-14T00:46:46.922Z,33.61
2023-06-14T00:47:46.895Z,33.58
2023-06-14T00:48:46.930Z,33.52
2023-06-14T00:49:46.951Z,33.56
2023-06-14T00:50:47.052Z,33.52
2023-06-14T00:51:47.068Z,33.56
2023-06-14T00:52:47.100Z,33.51
2023-06-14T00:53:46.166Z,33.51
2023-06-14T00:54:47.198Z,33.56
2023-06-14T00:55:47.246Z,33.53
2023-06-14T00:56:47.297Z,33.53
2023-06-14T00:57:46.388Z,33.50
2023-06-14T00:58:46.399Z,33.53
2023-06-14T00:59:47.486Z,33.51
2023-06-14T01:00:47.518Z,33.61
2023-06-14T01:01:47.658Z,33.48
2023-06-14T01:02:47.669Z,33.57
2023-06-14T01:03:47.701Z,33.49
2023-06-14T01:04:47.684Z,33.51
2023-06-14T01:05:46.743Z,33.53
2023-06-14T01:06:47.788Z,33.50
2023-06-14T01:07:47.898Z,33.51
2023-06-14T01:08:46.900Z,33.49
2023-06-14T01:09:46.968Z,33.52
2023-06-14T01:10:48.007Z,33.45
2023-06-14T01:11:48.045Z,33.54
2023-06-14T01:12:48.103Z,33.49
2023-06-14T01:13:47.184Z,33.57
2023-06-14T01:14:48.226Z,33.54
2023-06-14T01:15:47.303Z,33.54
2023-06-14T01:16:47.353Z,33.51
2023-06-14T01:17:48.399Z,33.57
2023-06-14T01:18:48.452Z,33.52
2023-06-14T01:19:48.518Z,33.55
2023-06-14T01:20:48.569Z,33.49
2023-06-14T01:21:48.600Z,33.51
2023-06-14T01:22:47.687Z,33.54
2023-06-14T01:23:48.740Z,33.53
2023-06-14T01:24:48.760Z,33.57
2023-06-14T01:25:48.868Z,33.47
2023-06-14T01:26:47.870Z,33.57
2023-06-14T01:27:47.971Z,33.52
2023-06-14T01:28:48.996Z,33.56
2023-06-14T01:29:49.058Z,33.49
2023-06-14T01:30:48.126Z,33.53
2023-06-14T01:31:48.195Z,33.60
2023-06-14T01:32:49.315Z,33.53
2023-06-14T01:33:49.295Z,33.50
2023-06-14T01:34:49.513Z,33.51
2023-06-14T01:35:49.426Z,33.47
2023-06-14T01:36:49.495Z,33.56
2023-06-14T01:37:48.584Z,33.55
2023-06-14T01:38:49.612Z,33.51
2023-06-14T01:39:49.690Z,33.56
2023-06-14T01:40:49.786Z,33.55
2023-06-14T01:41:49.818Z,33.50
2023-06-14T01:42:49.881Z,33.51
2023-06-14T01:43:49.930Z,33.48
2023-06-14T01:44:48.997Z,33.45
2023-06-14T01:45:49.091Z,33.59
2023-06-14T01:46:50.132Z,33.60
2023-06-14T01:47:49.270Z,33.46
2023-06-14T01:48:50.257Z,33.59
2023-06-14T01:49:50.318Z,33.59
2023-06-14T01:50:49.389Z,33.53
2023-06-14T01:51:50.457Z,33.56
2023-06-14T01:52:50.524Z,33.46
2023-06-14T01:53:49.598Z,33.51
2023-06-14T01:54:50.645Z,33.49
2023-06-14T01:55:50.657Z,33.57
2023-06-14T01:56:50.699Z,33.59
2023-06-14T01:57:50.746Z,33.49
2023-06-14T01:58:49.773Z,33.56
2023-06-14T01:59:49.800Z,33.52
2023-06-14T02:00:50.844Z,33.57
2023-06-14T02:01:49.938Z,33.55
2023-06-14T02:02:51.053Z,33.57
2023-06-14T02:03:51.058Z,33.51
2023-06-14T02:04:51.017Z,33.54
2023-06-14T02:05:51.107Z,33.55
2023-06-14T02:06:50.143Z,33.54
2023-06-14T02:07:50.158Z,33.55
2023-06-14T02:08:51.240Z,33.55
2023-06-14T02:09:50.227Z,33.51
2023-06-14T02:10:51.294Z,33.50
2023-06-14T02:11:51.318Z,33.52
2023-06-14T02:12:51.397Z,33.57
2023-06-14T02:13:50.409Z,33.52
2023-06-14T02:14:51.472Z,33.50
2023-06-14T02:15:51.572Z,33.51
2023-06-14T02:16:51.545Z,33.54
2023-06-14T02:17:51.659Z,33.47
2023-06-14T02:18:51.662Z,33.50
2023-06-14T02:19:51.768Z,33.58
2023-06-14T02:20:51.756Z,33.50
2023-06-14T02:21:51.798Z,33.55
2023-06-14T02:22:51.868Z,33.51
2023-06-14T02:23:51.956Z,33.48
2023-06-14T02:24:59.394Z,33.51
2023-06-14T02:25:51.990Z,33.51
2023-06-14T02:26:50.962Z,33.42
2023-06-14T02:27:51.956Z,33.49
2023-06-14T02:28:51.937Z,33.39
2023-06-14T02:29:50.934Z,33.47
2023-06-14T02:30:50.909Z,33.47
2023-06-14T02:31:51.969Z,33.48
2023-06-14T02:32:51.951Z,33.54
2023-06-14T02:33:51.914Z,33.50
2023-06-14T02:34:51.889Z,33.50
2023-06-14T02:35:50.912Z,33.48
2023-06-14T02:36:50.894Z,33.53
2023-06-14T02:37:51.882Z,33.43
2023-06-14T02:38:51.900Z,33.49
2023-06-14T02:39:51.875Z,33.48
2023-06-14T02:40:51.848Z,33.51
2023-06-14T02:41:51.838Z,33.49
2023-06-14T02:42:51.856Z,33.51
2023-06-14T02:43:50.826Z,33.54
2023-06-14T02:44:51.823Z,33.49
2023-06-14T02:45:50.824Z,33.51
2023-06-14T02:46:51.847Z,33.43
2023-06-14T02:47:50.864Z,33.48
2023-06-14T02:48:51.856Z,33.51
2023-06-14T02:49:51.883Z,33.46
2023-06-14T02:50:50.909Z,33.51
2023-06-14T02:51:51.981Z,33.41
2023-06-14T02:52:51.044Z,33.51
2023-06-14T02:53:52.111Z,33.46
2023-06-14T02:54:52.122Z,33.44
2023-06-14T02:55:51.173Z,33.54
2023-06-14T02:56:52.213Z,33.49
2023-06-14T02:57:52.258Z,33.43
2023-06-14T02:58:52.321Z,33.47
2023-06-14T02:59:52.395Z,33.45
2023-06-14T03:00:51.407Z,33.47
2023-06-14T03:01:52.431Z,33.47
2023-06-14T03:02:51.561Z,33.45
2023-06-14T03:03:51.592Z,33.50
2023-06-14T03:04:51.554Z,33.50
2023-06-14T03:05:51.589Z,33.45
2023-06-14T03:06:52.626Z,33.53
2023-06-14T03:07:52.697Z,33.47
2023-06-14T03:08:51.678Z,33.52
2023-06-14T03:09:52.714Z,33.49
2023-06-14T03:10:52.752Z,33.52
2023-06-14T03:11:51.791Z,33.58
2023-06-14T03:12:52.829Z,33.53
2023-06-14T03:13:52.874Z,33.45
2023-06-14T03:14:52.885Z,33.53
2023-06-14T03:15:53.045Z,33.44
2023-06-14T03:16:52.987Z,33.45
2023-06-14T03:17:52.016Z,33.45
2023-06-14T03:18:53.206Z,33.47
2023-06-14T03:19:53.054Z,33.45
2023-06-14T03:20:53.093Z,33.55
2023-06-14T03:21:53.088Z,33.50
2023-06-14T03:22:53.121Z,33.48
2023-06-14T03:23:53.229Z,33.50
2023-06-14T03:24:53.136Z,33.42
2023-06-14T03:25:53.162Z,33.42
2023-06-14T03:26:53.180Z,33.48
2023-06-14T03:27:53.210Z,33.39
2023-06-14T03:28:53.236Z,33.45
2023-06-14T03:29:52.232Z,33.49
2023-06-14T03:30:52.259Z,33.40
2023-06-14T03:31:53.277Z,33.40
2023-06-14T03:32:53.301Z,33.40
2023-06-14T03:33:52.302Z,33.48
2023-06-14T03:34:53.297Z,33.46
2023-06-14T03:35:53.292Z,33.40
2023-06-14T03:36:53.299Z,33.42
2023-06-14T03:37:53.315Z,33.45
2023-06-14T03:38:52.327Z,33.37
2023-06-14T03:39:53.355Z,33.48
2023-06-14T03:40:53.324Z,33.45
2023-06-14T03:41:52.339Z,33.46
2023-06-14T03:42:53.345Z,33.43
2023-06-14T03:43:53.348Z,33.42
2023-06-14T03:44:53.334Z,33.49
2023-06-14T03:45:53.332Z,33.40
2023-06-14T03:46:53.360Z,33.43
2023-06-14T03:47:53.391Z,33.43
2023-06-14T03:48:53.365Z,33.43
2023-06-14T03:49:52.398Z,33.40
2023-06-14T03:50:53.381Z,33.44
2023-06-14T03:51:53.356Z,33.44
2023-06-14T03:52:52.368Z,33.44
2023-06-14T03:54:11.360Z,33.40
2023-06-14T03:56:52.333Z,33.38
2023-06-14T03:57:53.318Z,33.38
2023-06-14T03:58:53.320Z,33.36
2023-06-14T03:59:53.307Z,33.35
2023-06-14T04:00:53.294Z,33.42
2023-06-14T04:01:53.283Z,33.42
2023-06-14T04:02:53.388Z,33.39
2023-06-14T04:03:53.399Z,33.40
2023-06-14T04:04:53.265Z,33.41
2023-06-14T04:05:53.334Z,33.36
2023-06-14T04:06:53.280Z,33.42
2023-06-14T04:07:53.255Z,33.36
2023-06-14T04:08:53.254Z,33.33
2023-06-14T04:09:53.227Z,33.37
2023-06-14T04:10:52.216Z,33.33
2023-06-14T04:11:52.645Z,33.31
2023-06-14T04:12:53.262Z,33.28
2023-06-14T04:13:53.236Z,33.31
2023-06-14T04:14:53.340Z,33.29
2023-06-14T04:15:53.237Z,33.31
2023-06-14T04:16:53.276Z,33.29
2023-06-14T04:17:53.278Z,33.29
2023-06-14T04:18:53.223Z,33.27
2023-06-14T04:19:53.169Z,33.31
2023-06-14T04:20:53.165Z,33.31
2023-06-14T04:21:53.262Z,33.24
2023-06-14T04:22:53.166Z,33.29
2023-06-14T04:23:53.187Z,33.27
2023-06-14T04:24:57.677Z,33.30
2023-06-14T04:25:53.131Z,33.29
2023-06-14T04:26:52.132Z,33.27
2023-06-14T04:27:52.150Z,33.26
2023-06-14T04:28:52.107Z,33.29
2023-06-14T04:29:53.096Z,33.35
2023-06-14T04:30:52.111Z,33.23
2023-06-14T04:31:52.100Z,33.32
2023-06-14T04:32:53.181Z,33.27
2023-06-14T04:33:53.145Z,33.27
2023-06-14T04:34:53.073Z,33.31
2023-06-14T04:35:53.072Z,33.34
2023-06-14T04:36:53.061Z,33.30
2023-06-14T04:37:53.039Z,33.19
2023-06-14T04:38:53.047Z,33.21
2023-06-14T04:39:52.044Z,33.16
2023-06-14T04:40:53.045Z,33.10
2023-06-14T04:41:53.024Z,33.15
2023-06-14T04:42:53.045Z,33.12
2023-06-14T04:43:53.021Z,33.22
2023-06-14T04:44:51.999Z,33.18
2023-06-14T04:45:53.048Z,33.14
2023-06-14T04:46:52.986Z,33.25
2023-06-14T04:47:52.995Z,33.14
2023-06-14T04:48:52.997Z,33.10
2023-06-14T04:49:52.985Z,32.80
2023-06-14T04:50:52.961Z,32.16
2023-06-14T04:51:52.962Z,32.24
2023-06-14T04:52:52.955Z,31.72
2023-06-14T04:53:52.944Z,30.82
2023-06-14T04:54:52.944Z,31.53
2023-06-14T04:55:52.956Z,30.89
2023-06-14T04:56:51.935Z,31.61
2023-06-14T04:57:52.904Z,31.78
2023-06-14T04:58:52.912Z,31.60
2023-06-14T04:59:52.948Z,31.67
2023-06-14T05:00:52.929Z,31.71
2023-06-14T05:01:52.974Z,31.99
2023-06-14T05:02:52.140Z,32.68
2023-06-14T05:03:52.054Z,33.94
2023-06-14T05:04:52.055Z,34.40
2023-06-14T05:05:53.057Z,35.18
2023-06-14T05:06:53.134Z,35.56
2023-06-14T05:07:53.149Z,36.13
2023-06-14T05:08:53.152Z,36.06
2023-06-14T05:09:53.167Z,35.98
2023-06-14T05:10:52.234Z,36.30
2023-06-14T05:11:52.264Z,35.93
2023-06-14T05:12:53.314Z,36.08
2023-06-14T05:13:53.412Z,36.16
2023-06-14T05:14:53.424Z,35.86
2023-06-14T05:15:53.521Z,35.73
2023-06-14T05:16:53.509Z,36.05
2023-06-14T05:17:53.590Z,36.00
2023-06-14T05:18:53.624Z,36.34
2023-06-14T05:19:53.660Z,36.36
2023-06-14T05:20:52.662Z,36.54
2023-06-14T05:21:53.704Z,36.66
2023-06-14T05:22:53.725Z,37.30
2023-06-14T05:23:53.735Z,36.98
2023-06-14T05:24:53.729Z,36.64
2023-06-14T05:25:52.746Z,36.54
2023-06-14T05:26:53.809Z,36.75
2023-06-14T05:27:52.779Z,36.65
2023-06-14T05:28:53.841Z,36.65
2023-06-14T05:29:53.807Z,36.75
2023-06-14T05:30:53.826Z,36.42
2023-06-14T05:31:53.946Z,36.45
2023-06-14T05:32:53.920Z,36.35
2023-06-14T05:33:53.950Z,36.07
2023-06-14T05:34:53.934Z,35.90
2023-06-14T05:35:54.010Z,35.71
2023-06-14T05:36:54.025Z,35.74
2023-06-14T05:37:54.025Z,35.97
2023-06-14T05:38:54.070Z,35.36
2023-06-14T05:39:54.102Z,34.43
2023-06-14T05:40:54.129Z,33.93
2023-06-14T05:41:54.166Z,33.30
2023-06-14T05:42:54.198Z,32.88
2023-06-14T05:43:54.195Z,32.46
2023-06-14T05:44:53.229Z,32.16
2023-06-14T05:45:54.246Z,31.90
2023-06-14T05:46:54.418Z,31.12
2023-06-14T05:47:53.422Z,31.99
2023-06-14T05:48:54.373Z,31.18
2023-06-14T05:49:54.399Z,31.38
2023-06-14T05:50:54.385Z,31.24
2023-06-14T05:51:53.428Z,31.13
2023-06-14T05:52:54.476Z,30.43
2023-06-14T05:53:54.526Z,30.42
2023-06-14T05:54:54.600Z,30.18
2023-06-14T05:55:54.588Z,30.32
2023-06-14T05:56:54.626Z,30.39
2023-06-14T05:57:54.658Z,31.24
2023-06-14T05:58:53.727Z,30.81
2023-06-14T05:59:53.698Z,30.99
2023-06-14T06:00:53.721Z,30.37
2023-06-14T06:01:53.755Z,30.93
2023-06-14T06:02:54.836Z,31.12
2023-06-14T06:03:55.238Z,29.80
2023-06-14T06:04:53.735Z,29.81
2023-06-14T06:05:54.798Z,30.46
2023-06-14T06:06:53.794Z,30.24
2023-06-14T06:07:53.797Z,30.15
2023-06-14T06:08:54.827Z,30.09
2023-06-14T06:09:54.878Z,29.98
2023-06-14T06:10:54.930Z,29.89
2023-06-14T06:11:55.011Z,30.12
2023-06-14T06:12:54.976Z,30.30
2023-06-14T06:13:54.996Z,30.05
2023-06-14T06:14:54.002Z,30.01
2023-06-14T06:15:55.005Z,29.92
2023-06-14T06:16:55.128Z,29.91
2023-06-14T06:17:56.482Z,29.77
2023-06-14T06:18:55.112Z,30.32
2023-06-14T06:19:55.127Z,30.14
2023-06-14T06:20:55.165Z,30.14
2023-06-14T06:21:55.091Z,30.07
2023-06-14T06:22:55.088Z,29.58
2023-06-14T06:23:55.111Z,29.65
2023-06-14T06:24:55.124Z,29.80
2023-06-14T06:25:55.070Z,29.74
2023-06-14T06:26:55.091Z,29.65
2023-06-14T06:27:55.037Z,29.55
2023-06-14T06:28:55.069Z,29.83
2023-06-14T06:29:55.029Z,29.66
2023-06-14T06:30:55.054Z,29.64
2023-06-14T06:31:55.046Z,29.32
2023-06-14T06:32:55.072Z,29.66
2023-06-14T06:33:54.991Z,30.05
2023-06-14T06:34:54.985Z,30.07
2023-06-14T06:35:54.011Z,29.89
2023-06-14T06:36:55.015Z,30.17
2023-06-14T06:37:54.980Z,30.18
2023-06-14T06:38:53.957Z,30.34
2023-06-14T06:39:55.020Z,29.99
2023-06-14T06:40:54.951Z,29.93
2023-06-14T06:41:53.961Z,30.02
2023-06-14T06:42:54.929Z,30.19
2023-06-14T06:43:54.936Z,30.38
2023-06-14T06:44:54.930Z,30.74
2023-06-14T06:45:54.976Z,30.30
2023-06-14T06:46:54.928Z,30.77
2023-06-14T06:47:54.946Z,30.88
2023-06-14T06:48:54.890Z,30.58
2023-06-14T06:49:54.906Z,30.76
2023-06-14T06:50:54.876Z,30.73
2023-06-14T06:51:54.910Z,30.41
2023-06-14T06:52:54.895Z,31.22
2023-06-14T06:53:53.869Z,31.05
2023-06-14T06:54:54.963Z,31.12
2023-06-14T06:55:54.894Z,31.06
2023-06-14T06:56:54.840Z,30.81
2023-06-14T06:57:54.988Z,30.87
2023-06-14T06:58:53.815Z,30.78
2023-06-14T06:59:54.849Z,30.74
2023-06-14T07:00:54.812Z,30.67
2023-06-14T07:01:55.197Z,30.60
2023-06-14T07:02:54.941Z,30.59
2023-06-14T07:03:54.962Z,30.54
2023-06-14T07:04:55.005Z,30.53
2023-06-14T07:05:54.070Z,30.54
2023-06-14T07:06:55.070Z,30.53
2023-06-14T07:07:57.769Z,30.55
2023-06-14T07:08:55.165Z,30.48
2023-06-14T07:09:55.120Z,30.48
2023-06-14T07:10:55.121Z,30.56
2023-06-14T07:11:55.109Z,30.56
2023-06-14T07:12:55.165Z,30.48
2023-06-14T07:13:54.091Z,30.56
2023-06-14T07:14:55.155Z,30.58
2023-06-14T07:15:55.092Z,30.52
2023-06-14T07:16:55.077Z,30.50
2023-06-14T07:17:55.083Z,30.58
2023-06-14T07:18:55.067Z,30.40
2023-06-14T07:19:55.081Z,30.46
2023-06-14T07:20:54.046Z,30.36
2023-06-14T07:21:55.028Z,30.26
2023-06-14T07:22:55.038Z,30.37
2023-06-14T07:23:55.058Z,30.34
2023-06-14T07:24:55.020Z,30.31
2023-06-14T07:25:55.007Z,30.29
2023-06-14T07:26:55.023Z,30.36
2023-06-14T07:27:54.997Z,30.33
2023-06-14T07:28:54.997Z,30.28
2023-06-14T07:29:53.983Z,30.25
2023-06-14T07:30:54.979Z,30.30
2023-06-14T07:31:53.954Z,30.29
2023-06-14T07:32:55.043Z,30.25
2023-06-14T07:33:54.110Z,30.26
2023-06-14T07:34:54.999Z,30.19
2023-06-14T07:35:54.938Z,30.24
2023-06-14T07:36:53.932Z,30.24
2023-06-14T07:37:54.929Z,30.26
2023-06-14T07:38:53.952Z,30.23
2023-06-14T07:39:54.945Z,30.16
2023-06-14T07:40:54.907Z,30.17
2023-06-14T07:41:54.957Z,30.20
2023-06-14T07:42:54.885Z,30.15
2023-06-14T07:43:54.907Z,30.18
2023-06-14T07:44:54.900Z,30.17
2023-06-14T07:46:06.255Z,30.08
2023-06-14T07:46:54.877Z,30.11
2023-06-14T07:47:53.931Z,29.94
2023-06-14T07:48:54.990Z,28.98
2023-06-14T07:49:54.973Z,28.01
2023-06-14T07:50:54.855Z,27.96
2023-06-14T07:51:53.827Z,27.70
2023-06-14T07:52:54.835Z,27.25
2023-06-14T07:53:54.823Z,27.17
2023-06-14T07:54:54.840Z,27.30
2023-06-14T07:55:54.873Z,26.95
2023-06-14T07:56:54.813Z,27.01
2023-06-14T07:57:53.783Z,27.24
2023-06-14T07:58:54.766Z,26.78
2023-06-14T07:59:54.774Z,26.75
2023-06-14T08:00:53.759Z,27.03
2023-06-14T08:01:54.781Z,26.77
2023-06-14T08:02:58.308Z,26.62
2023-06-14T08:03:54.857Z,26.85
2023-06-14T08:04:53.781Z,26.70
2023-06-14T08:05:54.763Z,26.30
2023-06-14T08:06:54.843Z,26.33
2023-06-14T08:07:54.718Z,26.54
2023-06-14T08:08:54.711Z,26.46
2023-06-14T08:09:54.702Z,26.63
2023-06-14T08:10:54.691Z,26.79
2023-06-14T08:11:54.712Z,26.57
2023-06-14T08:12:54.691Z,26.75
2023-06-14T08:13:54.683Z,26.86
2023-06-14T08:15:08.723Z,26.68
2023-06-14T08:15:54.697Z,25.99
2023-06-14T08:16:54.662Z,26.25
2023-06-14T08:17:54.744Z,25.64
2023-06-14T08:18:54.649Z,25.55
2023-06-14T08:19:53.666Z,25.01
2023-06-14T08:20:54.628Z,25.34
2023-06-14T08:21:54.623Z,25.19
2023-06-14T08:22:53.675Z,25.50
2023-06-14T08:23:54.660Z,25.27
2023-06-14T08:24:54.618Z,25.18
2023-06-14T08:25:54.615Z,25.14
2023-06-14T08:26:54.617Z,25.11
2023-06-14T08:27:53.652Z,25.05
2023-06-14T08:28:53.604Z,25.12
2023-06-14T08:29:54.594Z,24.97
2023-06-14T08:30:54.608Z,25.65
2023-06-14T08:31:54.566Z,25.45
2023-06-14T08:33:10.414Z,25.65
2023-06-14T08:33:54.626Z,25.45
2023-06-14T08:35:04.890Z,25.60
2023-06-14T08:35:54.524Z,25.26
2023-06-14T08:36:54.510Z,24.99
2023-06-14T08:37:54.504Z,25.14
2023-06-14T08:38:54.505Z,25.17
2023-06-14T08:39:54.516Z,25.07
2023-06-14T08:40:53.487Z,25.16
2023-06-14T08:41:54.476Z,25.35
2023-06-14T08:42:54.474Z,25.46
2023-06-14T08:43:53.486Z,25.61
2023-06-14T08:44:53.487Z,25.70
2023-06-14T08:45:54.458Z,25.92
2023-06-14T08:46:54.458Z,25.76
2023-06-14T08:47:54.578Z,25.89
2023-06-14T08:48:54.445Z,25.76
2023-06-14T08:49:54.496Z,25.84
2023-06-14T08:50:55.673Z,25.32
2023-06-14T08:51:54.421Z,25.66
2023-06-14T08:52:53.397Z,25.58
2023-06-14T08:53:54.404Z,25.89
2023-06-14T08:54:54.443Z,26.08
2023-06-14T08:55:53.504Z,25.79
2023-06-14T08:56:54.519Z,26.67
2023-06-14T08:57:54.572Z,26.86
2023-06-14T08:58:54.590Z,26.25
2023-06-14T08:59:54.048Z,26.66
2023-06-14T09:00:54.685Z,26.24
2023-06-14T09:02:08.163Z,26.00
2023-06-14T09:02:54.687Z,25.91
2023-06-14T09:03:54.776Z,26.25
2023-06-14T09:04:54.664Z,27.00
2023-06-14T09:05:54.659Z,27.05
2023-06-14T09:06:53.643Z,27.10
2023-06-14T09:07:54.638Z,27.22
2023-06-14T09:08:54.633Z,27.44
2023-06-14T09:10:06.681Z,27.12
2023-06-14T09:10:54.664Z,26.73
2023-06-14T09:11:54.619Z,26.79
2023-06-14T09:12:53.600Z,26.69
2023-06-14T09:13:53.613Z,27.17
2023-06-14T09:14:54.581Z,27.18
2023-06-14T09:15:54.656Z,27.33
2023-06-14T09:16:53.603Z,26.95
2023-06-14T09:17:53.569Z,26.81
2023-06-14T09:18:54.564Z,26.56
2023-06-14T09:19:54.604Z,26.28
2023-06-14T09:20:53.545Z,26.46
2023-06-14T09:21:54.544Z,26.65
2023-06-14T09:22:54.519Z,27.16
2023-06-14T09:23:54.583Z,27.33
2023-06-14T09:24:54.520Z,27.17
2023-06-14T09:25:54.499Z,26.23
2023-06-14T09:26:54.516Z,25.86
2023-06-14T09:27:54.508Z,25.73
2023-06-14T09:28:54.495Z,25.20
2023-06-14T09:29:54.518Z,24.42
2023-06-14T09:30:54.497Z,24.33
2023-06-14T09:31:54.500Z,24.30
2023-06-14T09:32:54.538Z,24.40
2023-06-14T09:33:53.476Z,24.10
2023-06-14T09:34:54.479Z,24.02
2023-06-14T09:35:53.513Z,23.29
2023-06-14T09:36:54.435Z,22.98
2023-06-14T09:37:54.425Z,23.99
2023-06-14T09:38:53.423Z,23.52
2023-06-14T09:39:54.457Z,23.15
2023-06-14T09:40:54.003Z,22.79
2023-06-14T09:41:54.393Z,23.18
2023-06-14T09:42:54.424Z,23.16
2023-06-14T09:43:54.452Z,22.98
2023-06-14T09:44:54.488Z,22.93
2023-06-14T09:45:54.580Z,22.72
2023-06-14T09:46:53.558Z,22.85
2023-06-14T09:48:53.617Z,22.51
2023-06-14T09:49:54.050Z,23.45
2023-06-14T09:50:54.599Z,24.35
2023-06-14T09:51:54.606Z,24.55
2023-06-14T09:52:54.600Z,24.74
2023-06-14T09:53:54.595Z,25.46
2023-06-14T09:54:54.568Z,24.79
2023-06-14T09:55:54.600Z,25.19
2023-06-14T09:56:54.538Z,25.19
2023-06-14T09:57:54.545Z,24.67
2023-06-14T09:59:07.052Z,24.50
2023-06-14T09:59:54.541Z,25.19
2023-06-14T10:00:54.497Z,24.74
2023-06-14T10:01:54.529Z,25.23
2023-06-14T10:02:54.531Z,24.33
2023-06-14T10:04:07.037Z,24.47
2023-06-14T10:04:54.636Z,24.82
2023-06-14T10:05:54.493Z,23.78
2023-06-14T10:06:54.521Z,24.23
2023-06-14T10:07:54.463Z,23.85
2023-06-14T10:08:54.458Z,24.39
2023-06-14T10:09:54.482Z,24.27
2023-06-14T10:10:54.497Z,23.99
2023-06-14T10:11:53.455Z,25.06
2023-06-14T10:12:54.442Z,24.23
2023-06-14T10:13:54.424Z,24.20
2023-06-14T10:14:53.412Z,24.51
2023-06-14T10:15:54.517Z,23.77
2023-06-14T10:16:54.545Z,24.14
2023-06-14T10:17:54.447Z,23.93
2023-06-14T10:18:53.407Z,24.99
2023-06-14T10:19:53.603Z,24.28
2023-06-14T10:20:54.375Z,24.84
2023-06-14T10:21:53.362Z,23.21
2023-06-14T10:22:54.356Z,25.04
2023-06-14T10:23:54.430Z,23.78
2023-06-14T10:24:54.343Z,24.77
2023-06-14T10:25:54.336Z,24.34
2023-06-14T10:26:53.336Z,24.80
2023-06-14T10:27:54.359Z,23.70
2023-06-14T10:28:54.373Z,24.32
2023-06-14T10:29:54.348Z,24.16
2023-06-14T10:30:54.305Z,23.47
2023-06-14T10:31:54.360Z,24.51
2023-06-14T10:32:54.358Z,24.30
2023-06-14T10:33:54.275Z,24.69
2023-06-14T10:34:53.282Z,23.65
2023-06-14T10:35:54.581Z,23.54
2023-06-14T10:36:53.362Z,23.55
2023-06-14T10:37:53.424Z,22.95
2023-06-14T10:38:54.422Z,24.63
2023-06-14T10:39:54.531Z,24.46
2023-06-14T10:40:53.573Z,23.49
2023-06-14T10:41:54.601Z,24.24
2023-06-14T10:42:54.738Z,23.70
2023-06-14T10:43:54.691Z,22.50
2023-06-14T10:44:55.027Z,23.76
2023-06-14T10:45:54.765Z,23.57
2023-06-14T10:46:54.839Z,23.36
2023-06-14T10:47:56.609Z,24.97
2023-06-14T10:48:54.851Z,23.92
2023-06-14T10:49:54.849Z,23.70
2023-06-14T10:50:54.832Z,23.65
2023-06-14T10:51:54.866Z,22.91
2023-06-14T10:52:54.819Z,23.69
2023-06-14T10:53:54.827Z,23.75
2023-06-14T10:54:53.812Z,23.53
2023-06-14T10:55:54.784Z,23.61
2023-06-14T10:56:54.789Z,23.58
2023-06-14T10:57:55.313Z,23.80
2023-06-14T10:58:54.801Z,23.74
2023-06-14T10:59:54.778Z,23.31
2023-06-14T11:00:54.779Z,23.57
2023-06-14T11:01:53.798Z,23.57
2023-06-14T11:02:53.772Z,24.31
2023-06-14T11:03:54.789Z,23.88
2023-06-14T11:04:54.729Z,24.06
2023-06-14T11:05:54.763Z,24.31
2023-06-14T11:06:54.728Z,22.68
2023-06-14T11:07:54.732Z,22.11
2023-06-14T11:08:53.696Z,24.18
2023-06-14T11:09:54.687Z,22.82
2023-06-14T11:10:54.740Z,23.66
2023-06-14T11:11:54.680Z,22.94
2023-06-14T11:12:54.666Z,22.92
2023-06-14T11:13:53.708Z,23.49
2023-06-14T11:14:54.654Z,23.56
2023-06-14T11:15:54.724Z,24.51
2023-06-14T11:16:53.645Z,24.03
2023-06-14T11:17:54.705Z,24.10
2023-06-14T11:18:54.684Z,24.81
2023-06-14T11:19:54.704Z,24.49
2023-06-14T11:20:54.734Z,25.42
2023-06-14T11:21:54.780Z,26.17
2023-06-14T11:22:54.807Z,25.55
2023-06-14T11:23:54.893Z,25.15
2023-06-14T11:24:54.834Z,25.37
2023-06-14T11:25:55.571Z,23.90
2023-06-14T11:26:53.949Z,24.01
2023-06-14T11:27:54.013Z,23.72
2023-06-14T11:28:54.957Z,23.65
2023-06-14T11:29:54.975Z,24.29
2023-06-14T11:30:54.962Z,23.93
2023-06-14T11:31:55.053Z,23.28
2023-06-14T11:32:58.318Z,23.63
2023-06-14T11:33:54.065Z,24.36
2023-06-14T11:34:55.101Z,23.37
2023-06-14T11:35:54.061Z,24.57
2023-06-14T11:36:55.080Z,24.44
2023-06-14T11:37:55.048Z,25.16
2023-06-14T11:38:56.025Z,25.64
2023-06-14T11:39:55.108Z,26.05
2023-06-14T11:40:55.055Z,26.22
2023-06-14T11:41:55.018Z,26.66
2023-06-14T11:42:54.032Z,27.47
2023-06-14T11:43:54.997Z,26.28
2023-06-14T11:45:00.945Z,26.92
2023-06-14T11:46:07.369Z,27.11
2023-06-14T11:46:54.979Z,27.60
2023-06-14T11:47:55.013Z,27.47
2023-06-14T11:48:54.980Z,26.77
2023-06-14T11:49:55.006Z,26.16
2023-06-14T11:50:54.948Z,26.44
2023-06-14T11:51:54.942Z,26.39
2023-06-14T11:52:54.938Z,26.93
2023-06-14T11:53:54.922Z,27.04
2023-06-14T11:54:54.930Z,26.96
2023-06-14T11:55:54.951Z,26.35
2023-06-14T11:56:54.906Z,26.19
2023-06-14T11:57:53.907Z,26.56
2023-06-14T11:58:54.889Z,26.77
2023-06-14T11:59:54.888Z,26.52
2023-06-14T12:00:54.882Z,27.43
2023-06-14T12:01:54.929Z,26.58
2023-06-14T12:02:54.984Z,27.21
2023-06-14T12:03:54.865Z,26.48
2023-06-14T12:04:54.844Z,26.72
2023-06-14T12:05:54.898Z,26.36
2023-06-14T12:06:54.838Z,26.70
2023-06-14T12:07:54.829Z,26.53
2023-06-14T12:08:54.816Z,26.58
2023-06-14T12:09:54.850Z,26.75
2023-06-14T12:10:54.793Z,27.05
2023-06-14T12:11:53.835Z,27.15
2023-06-14T12:12:54.780Z,26.95
2023-06-14T12:13:53.776Z,26.00
2023-06-14T12:14:54.773Z,26.13
2023-06-14T12:15:53.773Z,26.75
2023-06-14T12:16:54.882Z,26.51
2023-06-14T12:17:54.783Z,26.72
2023-06-14T12:18:53.768Z,26.80
2023-06-14T12:19:54.770Z,26.50
2023-06-14T12:20:54.753Z,27.75
2023-06-14T12:21:54.728Z,26.45
2023-06-14T12:22:53.765Z,26.91
2023-06-14T12:23:53.888Z,27.21
2023-06-14T12:24:53.851Z,26.87
2023-06-14T12:25:54.870Z,26.03
2023-06-14T12:26:54.932Z,27.45
2023-06-14T12:27:54.023Z,26.34
2023-06-14T12:28:54.957Z,26.40
2023-06-14T12:29:54.976Z,25.86
2023-06-14T12:30:55.014Z,25.87
2023-06-14T12:31:55.099Z,25.35
2023-06-14T12:32:55.172Z,25.45
2023-06-14T12:33:55.106Z,25.45
2023-06-14T12:34:54.098Z,25.24
2023-06-14T12:35:54.123Z,25.29
2023-06-14T12:36:54.124Z,25.26
2023-06-14T12:37:56.075Z,25.33
2023-06-14T12:38:54.185Z,25.32
2023-06-14T12:39:55.162Z,25.26
2023-06-14T12:40:55.220Z,25.26
2023-06-14T12:41:55.184Z,25.21
2023-06-14T12:42:55.172Z,25.27
2023-06-14T12:43:54.225Z,25.36
2023-06-14T12:44:55.178Z,25.29
2023-06-14T12:45:55.197Z,25.43
2023-06-14T12:46:54.250Z,25.27
2023-06-14T12:47:55.218Z,25.31
2023-06-14T12:48:55.178Z,25.21
2023-06-14T12:49:55.184Z,25.24
2023-06-14T12:50:55.184Z,25.23
2023-06-14T12:51:55.227Z,25.14
2023-06-14T12:52:55.181Z,25.39
2023-06-14T12:53:55.180Z,25.24
2023-06-14T12:54:55.186Z,25.42
2023-06-14T12:55:54.164Z,25.34